Time;durP1;ratioP1;P1;durP2;ratioP2;P2;SDS_P1;SDS_P2;PMS_P1;PMS_P2;Temp;Humidity;BMP_temperature;BMP_pressure;BME280_temperature;BME280_humidity;BME280_pressure;Samples;Min_cycle;Max_cycle;Signal;HPM_P1;HPM_P2
2022/10/13 00:00:50;;;;;;;7.97;4.67;;;7.70;99.90;;;;;;5260185;28;20423;-50
2022/10/13 00:03:21;;;;;;;8.20;5.00;;;7.70;99.90;;;;;;5274117;28;20424;-51
2022/10/13 00:05:51;;;;;;;15.20;4.60;;;7.70;99.90;;;;;;5250483;28;20198;-51
2022/10/13 00:08:24;;;;;;;12.67;5.80;;;7.60;99.90;;;;;;5261092;28;20190;-50
2022/10/13 00:10:55;;;;;;;11.83;4.60;;;7.60;99.90;;;;;;5266056;28;20177;-51
2022/10/13 00:13:26;;;;;;;11.47;4.33;;;7.60;99.90;;;;;;5270000;28;20476;-51
2022/10/13 00:15:57;;;;;;;16.93;5.60;;;7.60;99.90;;;;;;5261978;28;20202;-50
2022/10/13 00:18:27;;;;;;;13.30;5.67;;;7.60;99.90;;;;;;5257426;28;20427;-50
2022/10/13 00:20:58;;;;;;;9.30;5.53;;;7.50;99.90;;;;;;5249903;28;20249;-51
2022/10/13 00:23:28;;;;;;;11.57;5.00;;;7.50;99.90;;;;;;5252110;28;20190;-51
2022/10/13 00:26:03;;;;;;;10.03;5.37;;;7.50;99.90;;;;;;5259732;28;20206;-50
2022/10/13 00:28:33;;;;;;;17.43;5.93;;;7.50;99.90;;;;;;5255210;28;20186;-50
2022/10/13 00:31:21;;;;;;;12.27;5.00;;;7.60;99.90;;;;;;5253988;28;20433;-51
2022/10/13 00:33:53;;;;;;;12.10;5.00;;;7.60;99.90;;;;;;5258468;28;20206;-50
2022/10/13 00:36:24;;;;;;;9.20;5.00;;;7.60;99.90;;;;;;5247876;28;20448;-51
2022/10/13 00:38:56;;;;;;;8.90;4.60;;;7.60;99.90;;;;;;5259183;28;20439;-50
2022/10/13 00:41:26;;;;;;;15.97;5.50;;;7.50;99.90;;;;;;5259443;28;20200;-51
2022/10/13 00:44:03;;;;;;;8.53;4.87;;;7.50;99.90;;;;;;5255139;28;20444;-51
2022/10/13 00:46:36;;;;;;;21.50;4.27;;;7.50;99.90;;;;;;5254248;28;20610;-50
2022/10/13 00:49:13;;;;;;;15.63;5.80;;;7.50;99.90;;;;;;5255889;28;20420;-52
2022/10/13 00:51:47;;;;;;;6.30;4.00;;;7.50;99.90;;;;;;5259986;28;20583;-49
2022/10/13 00:54:23;;;;;;;14.27;3.80;;;7.40;99.90;;;;;;5259436;28;20546;-50
2022/10/13 00:56:54;;;;;;;12.13;4.87;;;7.40;99.90;;;;;;5258276;28;20454;-51
2022/10/13 00:59:27;;;;;;;7.20;4.80;;;7.40;99.90;;;;;;5279143;28;20539;-50
2022/10/13 01:01:59;;;;;;;10.63;4.30;;;7.40;99.90;;;;;;5249651;28;20512;-51
2022/10/13 01:04:36;;;;;;;13.70;5.87;;;7.30;99.90;;;;;;5266798;28;20442;-48
2022/10/13 01:07:07;;;;;;;8.33;5.50;;;7.30;99.90;;;;;;5258327;28;20455;-49
2022/10/13 01:09:38;;;;;;;10.87;5.37;;;7.30;99.90;;;;;;5259550;28;20435;-50
2022/10/13 01:12:23;;;;;;;11.93;5.20;;;7.30;99.90;;;;;;5252726;28;20777;-51
2022/10/13 01:15:09;;;;;;;24.63;5.73;;;7.30;99.90;;;;;;5253265;28;20623;-51
2022/10/13 01:17:57;;;;;;;9.60;5.10;;;7.20;99.90;;;;;;5266266;28;20455;-51
2022/10/13 01:20:27;;;;;;;15.43;5.30;;;7.20;99.90;;;;;;5271630;28;20427;-51
2022/10/13 01:23:16;;;;;;;12.23;5.80;;;7.20;99.90;;;;;;5261002;28;20431;-50
2022/10/13 01:25:47;;;;;;;10.17;5.17;;;7.20;99.90;;;;;;5249080;28;20724;-52
2022/10/13 01:28:55;;;;;;;22.77;5.60;;;7.10;99.90;;;;;;5261158;28;20496;-51
2022/10/13 01:31:51;;;;;;;9.37;4.60;;;7.10;99.90;;;;;;5272130;28;20695;-51
2022/10/13 01:34:33;;;;;;;7.83;5.00;;;7.10;99.90;;;;;;5265905;28;20474;-51
2022/10/13 01:37:12;;;;;;;16.63;5.20;;;7.10;99.90;;;;;;5254585;28;21093;-50
2022/10/13 01:39:51;;;;;;;7.73;5.53;;;7.00;99.90;;;;;;5262482;28;20459;-51
2022/10/13 01:42:31;;;;;;;16.37;5.97;;;7.00;99.90;;;;;;5272890;28;20433;-50
2022/10/13 01:45:03;;;;;;;12.07;5.53;;;7.00;99.90;;;;;;5260688;28;20992;-51
2022/10/13 01:47:35;;;;;;;10.90;5.67;;;7.00;99.90;;;;;;5231874;28;20488;-49
2022/10/13 01:50:07;;;;;;;16.50;5.93;;;7.00;99.90;;;;;;5258769;28;20937;-50
2022/10/13 01:52:38;;;;;;;25.13;5.97;;;7.00;99.90;;;;;;5256793;28;22182;-50
2022/10/13 01:55:11;;;;;;;11.03;6.10;;;6.90;99.90;;;;;;5245954;28;20480;-50
2022/10/13 01:57:43;;;;;;;12.70;5.70;;;6.90;99.90;;;;;;5264716;28;20512;-50
2022/10/13 02:00:17;;;;;;;15.00;5.93;;;6.90;99.90;;;;;;5261553;28;20474;-50
2022/10/13 02:03:14;;;;;;;8.90;5.07;;;6.90;99.90;;;;;;5251521;28;20476;-50
2022/10/13 02:06:03;;;;;;;13.40;5.07;;;7.20;99.90;;;;;;5251942;28;20455;-50
2022/10/13 02:08:42;;;;;;;9.07;5.30;;;6.90;99.90;;;;;;5256885;28;20455;-50
2022/10/13 02:11:16;;;;;;;9.60;4.90;;;6.90;99.90;;;;;;5260220;28;20440;-50
2022/10/13 02:14:06;;;;;;;12.63;5.40;;;6.90;99.90;;;;;;5255006;28;20466;-50
2022/10/13 02:16:43;;;;;;;19.93;5.67;;;6.90;99.90;;;;;;5265946;28;20526;-50
2022/10/13 02:19:16;;;;;;;15.33;5.93;;;6.90;99.90;;;;;;5253077;28;20453;-50
2022/10/13 02:21:47;;;;;;;16.60;6.47;;;7.00;99.90;;;;;;5253329;28;20787;-51
2022/10/13 02:24:18;;;;;;;11.30;5.73;;;7.00;99.90;;;;;;5266274;28;20950;-51
2022/10/13 02:26:50;;;;;;;14.70;6.50;;;7.00;99.90;;;;;;5266435;28;20459;-51
2022/10/13 02:29:21;;;;;;;17.93;5.77;;;6.90;99.90;;;;;;5253542;28;20499;-50
2022/10/13 02:31:53;;;;;;;11.73;6.27;;;6.90;99.90;;;;;;5256258;28;20550;-49
2022/10/13 02:34:24;;;;;;;16.70;5.80;;;6.90;99.90;;;;;;5264532;28;20202;-51
2022/10/13 02:36:54;;;;;;;17.83;5.80;;;6.90;99.90;;;;;;5247607;28;20921;-50
2022/10/13 02:39:25;;;;;;;16.90;7.20;;;6.80;99.90;;;;;;5247955;28;20205;-49
2022/10/13 02:41:55;;;;;;;7.73;5.83;;;6.80;99.90;;;;;;5259704;28;20276;-51
2022/10/13 02:44:26;;;;;;;25.20;7.07;;;6.80;99.90;;;;;;5261021;28;20545;-49
2022/10/13 02:46:57;;;;;;;15.93;6.30;;;6.80;99.90;;;;;;5264135;28;20217;-49
2022/10/13 02:49:27;;;;;;;7.80;5.60;;;6.80;99.90;;;;;;5247195;28;20247;-50
2022/10/13 02:51:58;;;;;;;16.27;6.33;;;6.70;99.90;;;;;;5254775;28;20177;-50
2022/10/13 02:54:28;;;;;;;9.90;6.87;;;6.70;99.90;;;;;;5268818;28;20217;-50
2022/10/13 02:56:59;;;;;;;15.63;6.87;;;6.70;99.90;;;;;;5249716;28;20287;-50
2022/10/13 02:59:29;;;;;;;16.83;6.23;;;6.60;99.90;;;;;;5262487;28;20178;-50
2022/10/13 03:02:00;;;;;;;10.20;6.07;;;6.60;99.90;;;;;;5258784;28;20292;-51
2022/10/13 03:04:31;;;;;;;8.60;5.83;;;6.60;99.90;;;;;;5254183;28;20186;-51
2022/10/13 03:07:01;;;;;;;11.53;6.00;;;6.60;99.90;;;;;;5262649;28;20275;-51
2022/10/13 03:09:32;;;;;;;13.13;5.93;;;6.50;99.90;;;;;;5257268;28;20305;-49
2022/10/13 03:12:03;;;;;;;10.93;6.40;;;6.50;99.90;;;;;;5265549;28;20196;-50
2022/10/13 03:14:33;;;;;;;11.03;6.53;;;6.50;99.90;;;;;;5267273;28;20576;-50
2022/10/13 03:17:04;;;;;;;8.23;5.40;;;6.50;99.90;;;;;;5268479;28;20209;-51
2022/10/13 03:19:35;;;;;;;9.53;5.77;;;6.50;99.90;;;;;;5263775;28;20430;-50
2022/10/13 03:22:05;;;;;;;15.97;6.40;;;6.50;99.90;;;;;;5266779;28;20249;-52
2022/10/13 03:24:36;;;;;;;12.50;7.00;;;6.50;99.90;;;;;;5263150;28;20181;-50
2022/10/13 03:27:06;;;;;;;16.60;7.13;;;6.50;99.90;;;;;;5251473;28;20611;-50
2022/10/13 03:29:37;;;;;;;9.50;5.70;;;6.50;99.90;;;;;;5250506;28;20669;-50
2022/10/13 03:32:08;;;;;;;20.57;6.00;;;6.60;99.90;;;;;;5264966;28;20193;-51
2022/10/13 03:34:39;;;;;;;11.33;6.63;;;6.50;99.90;;;;;;5276933;28;20462;-51
2022/10/13 03:37:10;;;;;;;18.80;7.57;;;6.50;99.90;;;;;;5247217;28;20263;-51
2022/10/13 03:39:41;;;;;;;16.30;6.90;;;6.50;99.90;;;;;;5250606;28;20171;-51
2022/10/13 03:42:11;;;;;;;16.63;6.80;;;6.40;99.90;;;;;;5264796;28;20267;-50
2022/10/13 03:44:42;;;;;;;16.07;6.17;;;6.40;99.90;;;;;;5256435;28;20433;-50
2022/10/13 03:47:13;;;;;;;17.40;7.17;;;6.50;99.90;;;;;;5260222;28;20244;-50
2022/10/13 03:49:43;;;;;;;9.80;5.53;;;6.50;99.90;;;;;;5256909;28;20641;-51
2022/10/13 03:52:14;;;;;;;16.17;6.20;;;6.50;99.90;;;;;;5249454;28;20196;-50
2022/10/13 03:54:44;;;;;;;13.90;7.07;;;6.50;99.90;;;;;;5272689;28;20209;-50
2022/10/13 03:57:15;;;;;;;19.53;6.97;;;6.60;99.90;;;;;;5240036;28;20205;-50
2022/10/13 03:59:45;;;;;;;13.77;6.20;;;6.50;99.90;;;;;;5252844;28;20204;-51
2022/10/13 04:02:16;;;;;;;11.17;6.27;;;6.50;99.90;;;;;;5250056;28;20250;-50
2022/10/13 04:04:47;;;;;;;11.87;6.67;;;6.60;99.90;;;;;;5253493;28;20198;-50
2022/10/13 04:07:17;;;;;;;9.80;6.30;;;6.60;99.90;;;;;;5255184;28;20216;-50
2022/10/13 04:09:48;;;;;;;12.07;5.60;;;6.70;99.90;;;;;;5256625;28;20205;-51
2022/10/13 04:12:18;;;;;;;13.63;6.70;;;6.70;99.90;;;;;;5260989;28;20555;-51
2022/10/13 04:14:49;;;;;;;7.97;6.07;;;6.70;99.90;;;;;;5256002;28;20194;-51
2022/10/13 04:17:19;;;;;;;10.67;6.30;;;6.80;99.90;;;;;;5253106;28;20681;-50
2022/10/13 04:19:50;;;;;;;10.10;6.87;;;6.90;99.90;;;;;;5245578;28;20223;-51
2022/10/13 04:22:20;;;;;;;7.00;6.30;;;6.90;99.90;;;;;;5258481;28;20178;-51
2022/10/13 04:24:51;;;;;;;7.00;5.63;;;7.00;99.90;;;;;;5252708;28;20261;-50
2022/10/13 04:27:22;;;;;;;16.87;5.57;;;7.00;99.90;;;;;;5253526;28;20223;-51
2022/10/13 04:29:53;;;;;;;15.87;5.97;;;7.10;99.90;;;;;;5252707;28;20219;-50
2022/10/13 04:32:24;;;;;;;9.17;6.30;;;7.10;99.90;;;;;;5249858;28;20463;-52
2022/10/13 04:34:54;;;;;;;8.13;6.53;;;7.00;99.90;;;;;;5262690;28;20205;-51
2022/10/13 04:37:25;;;;;;;9.30;5.97;;;7.10;99.90;;;;;;5248760;28;20504;-50
2022/10/13 04:39:55;;;;;;;8.83;6.10;;;7.20;99.90;;;;;;5255500;28;20664;-49
2022/10/13 04:42:26;;;;;;;9.57;7.03;;;7.20;99.90;;;;;;5266871;28;20181;-51
2022/10/13 04:44:56;;;;;;;18.63;7.40;;;7.20;99.90;;;;;;5260414;28;20182;-50
2022/10/13 04:47:27;;;;;;;16.90;7.27;;;7.10;99.90;;;;;;5255027;28;20288;-50
2022/10/13 04:49:57;;;;;;;11.67;6.60;;;7.10;99.90;;;;;;5266941;28;20322;-51
2022/10/13 04:52:28;;;;;;;10.87;6.27;;;7.10;99.90;;;;;;5268074;28;20600;-50
2022/10/13 04:54:58;;;;;;;11.43;6.33;;;7.00;99.90;;;;;;5267029;28;20239;-50
2022/10/13 04:57:29;;;;;;;21.83;8.03;;;7.00;99.90;;;;;;5255173;28;20210;-51
2022/10/13 05:00:00;;;;;;;9.00;7.57;;;7.00;99.90;;;;;;5243497;28;20706;-51
2022/10/13 05:02:31;;;;;;;8.67;6.67;;;7.10;99.90;;;;;;5245167;28;20535;-50
2022/10/13 05:05:02;;;;;;;17.87;7.60;;;7.00;99.90;;;;;;5265713;28;20311;-51
2022/10/13 05:07:33;;;;;;;32.23;7.37;;;7.00;99.90;;;;;;5262495;28;20205;-51
2022/10/13 05:10:04;;;;;;;12.43;6.83;;;7.10;99.90;;;;;;5267320;28;20439;-51
2022/10/13 05:12:35;;;;;;;22.00;8.17;;;7.10;99.90;;;;;;5267805;28;20189;-51
2022/10/13 05:15:06;;;;;;;11.20;7.60;;;7.10;99.90;;;;;;5267409;28;20482;-50
2022/10/13 05:17:37;;;;;;;13.67;6.70;;;7.10;99.90;;;;;;5264097;28;20239;-49
2022/10/13 05:20:08;;;;;;;13.33;6.40;;;7.10;99.90;;;;;;5259044;28;20528;-50
2022/10/13 05:22:39;;;;;;;26.00;7.93;;;7.20;99.90;;;;;;5256555;28;20193;-50
2022/10/13 05:25:10;;;;;;;13.77;6.70;;;7.30;99.90;;;;;;5252003;28;20448;-51
2022/10/13 05:27:40;;;;;;;18.30;6.70;;;7.30;99.90;;;;;;5260831;28;20306;-50
2022/10/13 05:30:11;;;;;;;18.00;8.07;;;7.30;99.90;;;;;;5264357;28;20190;-50
2022/10/13 05:32:42;;;;;;;12.27;6.70;;;7.30;99.90;;;;;;5265928;28;20177;-50
2022/10/13 05:35:12;;;;;;;14.30;7.00;;;7.30;99.90;;;;;;5262227;28;20471;-50
2022/10/13 05:37:43;;;;;;;28.53;8.40;;;7.30;99.90;;;;;;5268435;28;20509;-49
2022/10/13 05:40:14;;;;;;;19.17;7.20;;;7.30;99.90;;;;;;5254351;28;20542;-51
2022/10/13 05:42:44;;;;;;;21.87;8.43;;;7.30;99.90;;;;;;5272185;28;20685;-50
2022/10/13 05:45:17;;;;;;;11.73;7.03;;;7.30;99.90;;;;;;5262080;28;20214;-53
2022/10/13 05:47:47;;;;;;;15.07;7.53;;;7.30;99.90;;;;;;5267868;28;20277;-50
2022/10/13 05:50:18;;;;;;;22.93;7.37;;;7.50;99.90;;;;;;5262159;28;20448;-52
2022/10/13 05:52:49;;;;;;;30.33;7.93;;;7.50;99.90;;;;;;5267689;28;20190;-51
2022/10/13 05:55:20;;;;;;;18.60;7.60;;;7.50;99.90;;;;;;5260514;28;20213;-51
2022/10/13 05:57:51;;;;;;;14.53;7.13;;;7.60;99.90;;;;;;5264249;28;21039;-50
2022/10/13 06:00:22;;;;;;;14.60;8.10;;;7.60;99.90;;;;;;5267228;28;20194;-52
2022/10/13 06:03:21;;;;;;;20.97;8.93;;;7.70;99.90;;;;;;5261225;28;20543;-51
2022/10/13 06:05:52;;;;;;;21.67;7.83;;;7.70;99.90;;;;;;5260603;28;20482;-52
2022/10/13 06:08:23;;;;;;;13.43;7.33;;;7.70;99.90;;;;;;5268838;28;20472;-51
2022/10/13 06:10:53;;;;;;;18.90;8.60;;;7.70;99.90;;;;;;5253339;28;20178;-50
2022/10/13 06:13:24;;;;;;;15.23;8.67;;;7.80;99.90;;;;;;5248793;28;20207;-51
2022/10/13 06:15:54;;;;;;;17.10;8.10;;;7.90;99.90;;;;;;5268080;28;20202;-51
2022/10/13 06:18:25;;;;;;;19.23;7.67;;;7.80;99.90;;;;;;5264290;28;20621;-50
2022/10/13 06:20:56;;;;;;;27.23;8.13;;;7.80;99.90;;;;;;5258183;28;20638;-51
2022/10/13 06:23:26;;;;;;;34.20;7.90;;;7.80;99.90;;;;;;5267375;28;20177;-51
2022/10/13 06:25:57;;;;;;;24.40;10.40;;;7.90;99.90;;;;;;5248924;28;20247;-52
2022/10/13 06:28:27;;;;;;;14.00;7.90;;;7.80;99.90;;;;;;5258503;28;20269;-51
2022/10/13 06:30:58;;;;;;;16.40;8.50;;;7.80;99.90;;;;;;5257265;28;20299;-50
2022/10/13 06:33:28;;;;;;;20.73;8.00;;;7.90;99.90;;;;;;5269368;28;20206;-51
2022/10/13 06:36:04;;;;;;;14.93;8.90;;;8.00;99.90;;;;;;5265084;28;20260;-51
2022/10/13 06:38:34;;;;;;;13.80;8.40;;;8.00;99.90;;;;;;5268811;28;20178;-51
2022/10/13 06:41:05;;;;;;;21.03;8.27;;;8.20;99.90;;;;;;5261450;28;20456;-51
2022/10/13 06:43:36;;;;;;;13.87;8.70;;;8.30;99.90;;;;;;5262964;28;20324;-52
2022/10/13 06:46:07;;;;;;;17.50;8.87;;;8.40;99.90;;;;;;5265575;28;20282;-50
2022/10/13 06:48:38;;;;;;;9.57;7.40;;;8.50;99.90;;;;;;5256120;28;20428;-53
2022/10/13 06:51:10;;;;;;;21.07;8.10;;;9.00;99.90;;;;;;5267614;28;20264;-50
2022/10/13 06:53:41;;;;;;;24.27;9.17;;;9.60;99.90;;;;;;5258236;28;20212;-52
2022/10/13 06:56:11;;;;;;;12.10;8.17;;;9.70;99.90;;;;;;5266902;28;20526;-51
2022/10/13 06:58:42;;;;;;;12.40;8.50;;;9.70;99.90;;;;;;5268893;28;20195;-50
2022/10/13 07:01:13;;;;;;;18.90;8.57;;;9.50;99.90;;;;;;5266854;28;20258;-51
2022/10/13 07:03:47;;;;;;;14.17;8.27;;;9.50;99.90;;;;;;5264378;28;20577;-51
2022/10/13 07:06:18;;;;;;;16.00;9.63;;;9.60;99.90;;;;;;5264983;28;20533;-50
2022/10/13 07:08:48;;;;;;;19.77;9.93;;;9.90;99.90;;;;;;5256735;28;20455;-51
2022/10/13 07:11:19;;;;;;;17.60;9.00;;;10.30;99.90;;;;;;5259372;28;20208;-51
2022/10/13 07:13:49;;;;;;;22.23;7.23;;;10.90;99.90;;;;;;5263078;28;20197;-51
2022/10/13 07:16:20;;;;;;;12.20;7.23;;;11.70;99.90;;;;;;5259420;28;20252;-52
2022/10/13 07:18:51;;;;;;;17.00;9.17;;;11.90;99.90;;;;;;5262168;28;20185;-50
2022/10/13 07:21:21;;;;;;;19.23;8.00;;;12.00;99.90;;;;;;5259105;28;20214;-51
2022/10/13 07:23:52;;;;;;;16.00;8.10;;;11.90;99.90;;;;;;5265385;28;20185;-51
2022/10/13 07:26:23;;;;;;;8.93;7.07;;;11.80;99.90;;;;;;5265695;28;20217;-51
2022/10/13 07:28:53;;;;;;;23.37;8.43;;;11.60;99.90;;;;;;5266255;28;20691;-51
2022/10/13 07:31:24;;;;;;;18.07;9.50;;;11.50;99.90;;;;;;5252266;28;20653;-50
2022/10/13 07:33:57;;;;;;;21.93;8.70;;;11.50;99.90;;;;;;5243989;28;20576;-50
2022/10/13 07:36:27;;;;;;;13.93;8.10;;;11.40;99.90;;;;;;5251380;28;20212;-52
2022/10/13 07:38:59;;;;;;;34.67;9.97;;;11.50;99.90;;;;;;5280007;28;20430;-50
2022/10/13 07:41:30;;;;;;;18.63;8.80;;;11.60;99.90;;;;;;5257271;28;20202;-51
2022/10/13 07:44:01;;;;;;;19.17;9.53;;;11.80;99.90;;;;;;5268072;28;20472;-51
2022/10/13 07:46:31;;;;;;;27.80;10.60;;;11.70;99.90;;;;;;5261957;28;20373;-51
2022/10/13 07:49:02;;;;;;;30.73;10.67;;;11.40;99.90;;;;;;5263034;28;20210;-51
2022/10/13 07:51:32;;;;;;;13.30;8.63;;;11.20;99.90;;;;;;5258941;28;20196;-51
2022/10/13 07:54:03;;;;;;;35.07;9.40;;;11.30;99.90;;;;;;5267228;28;20273;-51
2022/10/13 07:56:33;;;;;;;18.83;10.07;;;11.60;99.90;;;;;;5260225;28;20564;-51
2022/10/13 07:59:04;;;;;;;14.60;9.27;;;12.00;99.90;;;;;;5267740;28;20213;-54
2022/10/13 08:01:35;;;;;;;16.23;9.73;;;12.10;99.90;;;;;;5263173;28;20182;-51
2022/10/13 08:04:09;;;;;;;22.90;10.00;;;12.10;99.90;;;;;;5272038;28;20181;-52
2022/10/13 08:06:40;;;;;;;21.10;11.33;;;12.20;99.90;;;;;;5257014;28;20466;-50
2022/10/13 08:09:11;;;;;;;21.07;10.00;;;12.30;99.90;;;;;;5266199;28;20438;-50
2022/10/13 08:11:41;;;;;;;23.20;10.90;;;12.40;99.90;;;;;;5264103;28;20805;-50
2022/10/13 08:14:13;;;;;;;19.23;9.97;;;12.60;99.90;;;;;;5263676;28;20209;-51
2022/10/13 08:16:44;;;;;;;13.87;9.10;;;12.80;99.90;;;;;;5267960;28;20265;-52
2022/10/13 08:19:16;;;;;;;20.63;9.13;;;12.90;99.90;;;;;;5271944;28;20427;-51
2022/10/13 08:21:47;;;;;;;23.10;10.37;;;13.00;99.90;;;;;;5264433;28;20428;-51
2022/10/13 08:24:18;;;;;;;24.83;10.30;;;13.10;99.90;;;;;;5262178;28;20448;-52
2022/10/13 08:26:50;;;;;;;19.67;9.50;;;13.20;99.90;;;;;;5258109;28;20456;-51
2022/10/13 08:29:20;;;;;;;15.27;10.30;;;13.30;99.90;;;;;;5264909;28;20257;-52
2022/10/13 08:31:51;;;;;;;21.80;9.93;;;13.40;99.90;;;;;;5262657;28;20423;-51
2022/10/13 08:34:23;;;;;;;12.87;9.70;;;13.50;99.90;;;;;;5261804;28;20205;-52
2022/10/13 08:36:55;;;;;;;12.10;9.47;;;13.60;99.90;;;;;;5268391;28;20449;-51
2022/10/13 08:39:25;;;;;;;18.47;9.40;;;13.80;99.90;;;;;;5260161;28;20442;-51
2022/10/13 08:41:57;;;;;;;13.67;9.03;;;13.80;99.90;;;;;;5259208;28;20967;-51
2022/10/13 08:44:41;;;;;;;24.63;9.47;;;14.00;99.90;;;;;;5259992;28;20301;-50
2022/10/13 08:47:26;;;;;;;18.70;10.43;;;14.20;99.90;;;;;;5272378;28;20459;-51
2022/10/13 08:50:00;;;;;;;19.40;9.90;;;14.30;99.90;;;;;;5258387;28;20782;-50
2022/10/13 08:52:54;;;;;;;17.30;10.97;;;14.50;99.90;;;;;;5261898;28;20516;-52
2022/10/13 08:55:39;;;;;;;13.83;9.83;;;14.60;99.90;;;;;;5262304;28;20460;-51
2022/10/13 08:58:37;;;;;;;18.80;11.20;;;14.90;99.90;;;;;;5271718;28;20427;-52
2022/10/13 09:01:08;;;;;;;17.77;10.33;;;15.10;99.90;;;;;;5264776;28;20460;-52
2022/10/13 09:03:54;;;;;;;12.80;9.47;;;15.30;99.90;;;;;;5265980;28;20482;-50
2022/10/13 09:06:32;;;;;;;21.27;9.50;;;15.40;99.90;;;;;;5266695;28;20193;-52
2022/10/13 09:09:11;;;;;;;13.97;9.80;;;15.50;99.90;;;;;;5261004;28;20419;-53
2022/10/13 09:11:47;;;;;;;20.87;10.40;;;15.70;99.90;;;;;;5264429;28;20519;-51
2022/10/13 09:14:30;;;;;;;17.73;10.00;;;15.80;99.90;;;;;;5258409;28;20529;-50
2022/10/13 09:17:19;;;;;;;18.37;10.47;;;15.80;99.90;;;;;;5268492;28;20455;-51
2022/10/13 09:20:17;;;;;;;17.33;9.20;;;15.80;99.90;;;;;;5267647;28;20449;-51
2022/10/13 09:23:16;;;;;;;23.03;10.53;;;15.90;99.90;;;;;;5263916;28;20520;-52
2022/10/13 09:25:49;;;;;;;13.70;9.80;;;16.00;99.90;;;;;;5274820;27;20956;-51
2022/10/13 09:28:31;;;;;;;16.07;11.13;;;15.90;99.90;;;;;;5261024;28;20430;-51
2022/10/13 09:31:32;;;;;;;17.33;10.80;;;15.80;99.90;;;;;;5269111;28;20508;-51
2022/10/13 09:34:24;;;;;;;21.03;10.50;;;15.70;99.90;;;;;;5258705;28;20459;-51
2022/10/13 09:36:59;;;;;;;26.73;10.17;;;15.40;99.90;;;;;;5261925;28;20451;-52
2022/10/13 09:39:31;;;;;;;14.63;9.50;;;15.50;99.90;;;;;;5273091;28;20423;-52
2022/10/13 09:42:22;;;;;;;16.17;9.77;;;15.50;99.90;;;;;;5273240;28;20446;-51
2022/10/13 09:45:22;;;;;;;28.83;10.63;;;15.60;99.90;;;;;;5264039;28;20435;-53
2022/10/13 09:47:56;;;;;;;21.40;10.20;;;15.50;99.90;;;;;;5296683;22;20490;-51
2022/10/13 09:50:29;;;;;;;27.70;9.90;;;15.70;99.90;;;;;;5265373;28;20483;-55
2022/10/13 09:53:24;;;;;;;15.10;11.03;;;15.80;99.90;;;;;;5286861;27;20470;-49
2022/10/13 09:56:17;;;;;;;18.43;11.30;;;15.90;99.90;;;;;;5262457;28;20431;-49
2022/10/13 09:59:15;;;;;;;16.60;11.63;;;16.00;99.90;;;;;;5264705;28;20423;-48
2022/10/13 10:01:48;;;;;;;19.57;10.37;;;16.00;99.90;;;;;;5276241;27;20427;-48
2022/10/13 10:04:24;;;;;;;14.10;10.10;;;16.00;99.90;;;;;;5282683;28;20525;-49
2022/10/13 10:06:55;;;;;;;17.33;10.13;;;16.00;99.90;;;;;;5277074;28;20494;-49
2022/10/13 10:09:43;;;;;;;14.30;9.63;;;16.00;99.90;;;;;;5285347;27;20445;-49
2022/10/13 10:12:21;;;;;;;19.87;10.60;;;16.10;99.90;;;;;;5280356;27;20964;-48
2022/10/13 10:14:52;;;;;;;19.40;10.03;;;16.30;99.90;;;;;;5284938;28;20472;-47
2022/10/13 10:17:41;;;;;;;14.03;8.77;;;16.40;99.90;;;;;;5284497;28;20455;-48
2022/10/13 10:20:20;;;;;;;15.70;10.00;;;16.60;99.90;;;;;;5278934;27;20239;-49
2022/10/13 10:23:01;;;;;;;16.50;10.37;;;16.70;99.90;;;;;;5281939;27;20827;-50
2022/10/13 10:25:34;;;;;;;15.23;9.67;;;16.70;99.90;;;;;;5281092;27;20786;-48
2022/10/13 10:28:21;;;;;;;39.80;12.23;;;16.70;99.90;;;;;;5279441;28;20542;-49
2022/10/13 10:31:16;;;;;;;20.13;12.80;;;16.70;99.90;;;;;;5286113;27;20788;-49
2022/10/13 10:34:07;;;;;;;18.40;12.40;;;16.70;99.90;;;;;;5253472;28;20954;-49
2022/10/13 10:36:51;;;;;;;22.73;12.20;;;16.70;99.90;;;;;;5271883;27;20478;-48
2022/10/13 10:39:35;;;;;;;25.30;10.43;;;16.70;99.90;;;;;;5276317;28;20435;-51
2022/10/13 10:42:37;;;;;;;17.30;11.63;;;16.90;99.90;;;;;;5258490;28;20439;-49
2022/10/13 10:45:38;;;;;;;24.90;11.93;;;16.90;99.90;;;;;;5287972;27;20909;-47
2022/10/13 10:48:36;;;;;;;17.20;10.90;;;17.00;99.90;;;;;;5249656;28;20466;-49
2022/10/13 10:51:09;;;;;;;21.97;12.70;;;17.00;99.90;;;;;;5279608;27;20834;-51
2022/10/13 10:54:15;;;;;;;17.30;10.53;;;17.20;99.90;;;;;;5283594;28;20502;-51
2022/10/13 10:57:00;;;;;;;20.50;12.97;;;17.30;99.90;;;;;;5269629;28;20454;-50
2022/10/13 10:59:42;;;;;;;16.33;11.00;;;17.30;99.90;;;;;;5268026;28;20434;-50
2022/10/13 11:02:25;;;;;;;24.67;11.03;;;17.30;99.90;;;;;;5253769;28;20458;-49
2022/10/13 11:04:57;;;;;;;22.13;10.70;;;17.20;99.90;;;;;;5285779;27;20431;-50
2022/10/13 11:07:27;;;;;;;24.40;12.80;;;17.00;99.90;;;;;;5259214;28;20539;-53
2022/10/13 11:10:26;;;;;;;23.70;12.30;;;16.90;99.90;;;;;;5270989;28;20470;-50
2022/10/13 11:12:56;;;;;;;17.23;10.90;;;17.00;99.90;;;;;;5256519;28;20181;-53
2022/10/13 11:15:40;;;;;;;27.93;13.73;;;16.90;99.90;;;;;;5284462;28;20992;-51
2022/10/13 11:18:58;;;;;;;19.27;12.70;;;16.80;99.90;;;;;;5259945;28;20196;-51
2022/10/13 11:21:51;;;;;;;24.90;13.60;;;16.80;99.90;;;;;;5267793;28;20855;-51
2022/10/13 11:24:40;;;;;;;29.03;12.80;;;16.90;99.90;;;;;;5262971;28;20481;-50
2022/10/13 11:27:34;;;;;;;20.73;13.30;;;17.20;99.90;;;;;;5268399;27;20462;-48
2022/10/13 11:30:46;;;;;;;17.93;13.03;;;17.30;99.90;;;;;;5265276;28;20435;-50
2022/10/13 11:33:38;;;;;;;19.13;10.57;;;17.60;99.90;;;;;;5284704;27;20819;-52
2022/10/13 11:36:27;;;;;;;29.77;13.93;;;17.80;99.90;;;;;;5282249;27;20458;-50
2022/10/13 11:39:12;;;;;;;21.57;10.43;;;17.90;99.90;;;;;;5289756;28;20454;-50
2022/10/13 11:42:14;;;;;;;20.10;10.73;;;17.70;99.90;;;;;;5273428;28;20442;-50
2022/10/13 11:44:58;;;;;;;16.73;10.50;;;17.60;99.90;;;;;;5271983;28;20801;-50
2022/10/13 11:47:48;;;;;;;18.87;11.17;;;17.50;99.90;;;;;;5266780;28;20573;-50
2022/10/13 11:50:34;;;;;;;21.40;11.60;;;17.50;99.90;;;;;;5273400;28;20446;-50
2022/10/13 11:53:26;;;;;;;19.70;11.13;;;17.20;99.90;;;;;;5260644;28;20786;-50
2022/10/13 11:56:00;;;;;;;24.23;11.70;;;17.20;99.90;;;;;;5260325;28;20533;-51
2022/10/13 11:58:32;;;;;;;15.37;10.63;;;17.20;99.90;;;;;;5270656;28;20444;-50
2022/10/13 12:01:12;;;;;;;19.20;10.37;;;17.40;99.90;;;;;;5278064;28;20423;-52
2022/10/13 12:03:44;;;;;;;17.33;9.90;;;17.30;99.90;;;;;;5266450;28;20450;-49
2022/10/13 12:06:15;;;;;;;34.37;11.07;;;17.40;99.90;;;;;;5275516;28;20435;-50
2022/10/13 12:08:48;;;;;;;14.43;9.50;;;17.50;99.90;;;;;;5282328;28;20445;-49
2022/10/13 12:11:28;;;;;;;14.00;9.60;;;17.60;99.90;;;;;;5278205;28;20196;-49
2022/10/13 12:14:00;;;;;;;18.63;8.50;;;17.80;99.90;;;;;;5263669;28;20458;-49
2022/10/13 12:16:30;;;;;;;16.30;8.17;;;17.90;99.90;;;;;;5263878;28;23404;-50
2022/10/13 12:19:18;;;;;;;17.17;9.60;;;17.90;99.90;;;;;;5262378;28;20760;-48
2022/10/13 12:21:50;;;;;;;22.90;10.07;;;17.90;99.90;;;;;;5262917;28;20173;-50
2022/10/13 12:24:27;;;;;;;11.83;8.20;;;17.80;99.90;;;;;;5272163;28;20443;-49
2022/10/13 12:26:58;;;;;;;12.10;8.30;;;17.70;99.90;;;;;;5267464;28;20470;-48
2022/10/13 12:29:28;;;;;;;8.50;7.10;;;17.70;99.90;;;;;;5273591;28;20458;-51
2022/10/13 12:31:59;;;;;;;15.10;8.53;;;17.80;99.90;;;;;;5259207;28;20663;-49
2022/10/13 12:34:33;;;;;;;14.57;8.40;;;17.80;99.90;;;;;;5278020;28;20200;-49
2022/10/13 12:37:42;;;;;;;11.60;7.40;;;18.00;99.90;;;;;;5260623;28;20200;-51
2022/10/13 12:40:15;;;;;;;18.40;6.80;;;18.10;99.90;;;;;;5258348;28;20441;-49
2022/10/13 12:42:47;;;;;;;9.50;6.07;;;18.30;99.90;;;;;;5265729;28;20510;-50
2022/10/13 12:45:25;;;;;;;8.73;6.70;;;18.40;99.90;;;;;;5264928;27;20803;-49
2022/10/13 12:47:55;;;;;;;18.57;7.00;;;18.40;99.90;;;;;;5279293;28;20518;-50
2022/10/13 12:50:26;;;;;;;11.83;6.53;;;18.40;99.50;;;;;;5262581;28;20442;-48
2022/10/13 12:53:20;;;;;;;16.10;7.43;;;18.30;99.20;;;;;;5286542;27;20204;-49
2022/10/13 12:56:02;;;;;;;8.93;6.00;;;18.20;98.10;;;;;;5283334;28;20220;-51
2022/10/13 12:58:34;;;;;;;8.83;6.13;;;18.20;97.60;;;;;;5270062;28;20427;-48
2022/10/13 13:01:10;;;;;;;11.23;7.60;;;18.10;97.30;;;;;;5262476;28;20797;-50
2022/10/13 13:03:43;;;;;;;7.43;4.90;;;17.90;96.70;;;;;;5270075;28;20904;-49
2022/10/13 13:06:13;;;;;;;14.80;7.33;;;17.90;97.10;;;;;;5276083;27;20458;-48
2022/10/13 13:08:44;;;;;;;12.97;5.67;;;17.80;96.40;;;;;;5269381;28;20526;-47
2022/10/13 13:11:34;;;;;;;12.03;5.80;;;17.60;97.30;;;;;;5285459;27;20177;-52
2022/10/13 13:14:32;;;;;;;7.80;5.30;;;17.60;98.10;;;;;;5291789;27;20204;-48
2022/10/13 13:17:02;;;;;;;10.13;5.97;;;17.50;98.50;;;;;;5282036;27;20845;-47
2022/10/13 13:19:34;;;;;;;15.43;6.30;;;17.40;98.90;;;;;;5273190;28;20461;-48
2022/10/13 13:22:06;;;;;;;22.10;6.67;;;17.50;99.00;;;;;;5288137;28;20188;-49
2022/10/13 13:24:37;;;;;;;15.30;5.80;;;17.30;98.50;;;;;;5270421;28;20827;-51